Mekinock, North Dakota
Current Conditions -  °F | °C
As of 10:58 PM on Thursday 30 Oct 2014 (Local Time) from KRDR Reporting Station
Clear Clear  
Wind Chill: 15°   Ceiling: Unl
Heat Index: 24°   Visibility: 10mi
Dew Point: 17°   Wind: 8mph
Humidity: 73%   Direction: 10°N
Pressure: 30.58"   Gusts: NA
Location:  48.01°N, 97.37°W
Report Text: KRDR 310358Z AUTO 01007KT 10SM CLR M04/M09 A3058 RMK AO2 SLP374 T10441086
Loading
Personal Weather Stations






























Interactive Weather Map
Tropical Storm Tracking
New forecast layout! Learn more

10-Day Weather Forecast

Advertisements
Track Severe Weather on mobile